Terminal Aerodrome Forecast
Issued by NWS

Home | Current Version | Previous Version | Text Only | Print | Product List | Glossary On
Versions: 1 2 3 4 5 6 7 8 9 10 11 12 13 14 15 16 17 18 19 20 21 22 23 24
000
FTUS45 KVEF 211100
TAFHND
TAF
KHND 211121Z 2112/2212 16007KT P6SM FEW110 SCT200
     FM212000 18010KT P6SM SCT100 PROB30 2121/2203 P6SM -TSRA
      BKN090CB
     FM220400 17009KT P6SM SCT110=

USA.gov is the U.S. government's official web portal to all federal, state and local government web resources and services.